Ana Sayfa
METAR-TAF:

METAR-TAF

Havaalanları :

First Flight Airport

Kill Devil Hills, Kuzey Carolina, Amerika Birleşik Devletleri

Enlem: 36-01N, Boylam: 075-40W, yükseklik: 4 m

Güncel hava durumu gözlemi

Rapor saat 09:55 UTC de 21 dakika önce yapıldı.
Sakin rüzgar
Sıcaklık 12°C
Nem 100%
Basınç 1013 hPa
Görüş mesafesi: 11.3 km
700 ft yükseklikte parçalı çok bulutlu
2600 ft yükseklikte parçalı çok bulutlu
10000 ft yükseklikte çok bulutlu
çisenti

METAR: KFFA 250955Z AUTO 00000KT 7SM DZ BKN007 BKN026 OVC100 12/12 A2992 RMK AO2 P0001 T01180118

Saat: 05:16 (10:16 UTC)


TAF: eksik

4.000'den fazla havaalanı için hava durumu gözlemleri ve tahminleri (METAR ve TAF raporları).

Kullanılabilir istasyonlar harita üzerinde sarı ve kırmızı noktalarla gösterilir.

İstasyonun adını görmek için fareyi noktanın üzerinde gezdirin.

Sonrasında hava gözlem ve tahminlerini görmek için tıklayın.

Haritayı değiştirmek için: yaklaştırmak için siyah artı işaretli yeşil düğmeye ve uzaklaştırmak için de eksi işaretli düğmeye hızla tıklayın; bitişik haritalar için yeşil okları kullanın.


METAR-TAF: